Time;durP1;ratioP1;P1;durP2;ratioP2;P2;SDS_P1;SDS_P2;PMS_P1;PMS_P2;Temp;Humidity;BMP_temperature;BMP_pressure;BME280_temperature;BME280_humidity;BME280_pressure;Samples;Min_cycle;Max_cycle;Signal;HPM_P1;HPM_P2
2023/04/13 00:01:14;;;;;;;3.23;1.40;;;;;;;;;;5020908;28;20188;-88
2023/04/13 00:03:41;;;;;;;3.37;1.30;;;;;;;;;;5029779;28;20227;-87
2023/04/13 00:06:09;;;;;;;2.23;1.20;;;;;;;;;;5037098;28;20184;-87
2023/04/13 00:08:35;;;;;;;1.90;1.30;;;;;;;;;;5030092;28;20173;-87
2023/04/13 00:11:03;;;;;;;3.67;1.40;;;;;;;;;;5037630;28;20180;-87
2023/04/13 00:13:41;;;;;;;2.10;1.07;;;;;;;;;;5035547;28;20196;-86
2023/04/13 00:16:12;;;;;;;3.20;1.30;;;;;;;;;;5030798;28;20204;-87
2023/04/13 00:18:39;;;;;;;3.30;1.40;;;;;;;;;;5029354;28;20173;-86
2023/04/13 00:21:05;;;;;;;2.37;1.23;;;;;;;;;;5033882;28;20203;-87
2023/04/13 00:23:31;;;;;;;4.50;1.53;;;;;;;;;;5031757;28;20184;-86
2023/04/13 00:26:00;;;;;;;2.33;1.30;;;;;;;;;;5033290;28;20212;-87
2023/04/13 00:28:27;;;;;;;3.10;1.20;;;;;;;;;;5033626;28;20177;-86
2023/04/13 00:30:53;;;;;;;2.40;1.20;;;;;;;;;;5018040;28;20185;-86
2023/04/13 00:33:19;;;;;;;2.77;1.20;;;;;;;;;;5038427;28;20205;-87
2023/04/13 00:35:47;;;;;;;3.73;1.30;;;;;;;;;;5034416;28;20176;-87
2023/04/13 00:38:13;;;;;;;3.00;1.53;;;;;;;;;;5019604;28;20192;-87
2023/04/13 00:40:42;;;;;;;3.37;1.47;;;;;;;;;;5043537;28;20180;-87
2023/04/13 00:43:11;;;;;;;2.27;1.30;;;;;;;;;;5018584;28;20182;-87
2023/04/13 00:45:37;;;;;;;3.37;1.40;;;;;;;;;;5030051;28;20204;-86
2023/04/13 00:48:04;;;;;;;3.07;1.40;;;;;;;;;;5038862;28;20275;-86
2023/04/13 00:50:32;;;;;;;2.57;1.40;;;;;;;;;;5035232;28;20197;-87
2023/04/13 00:52:59;;;;;;;4.00;1.50;;;;;;;;;;5035188;28;20209;-86
2023/04/13 00:55:26;;;;;;;2.60;1.37;;;;;;;;;;5034898;28;20252;-87
2023/04/13 00:57:56;;;;;;;3.20;1.50;;;;;;;;;;5034373;28;20177;-87
2023/04/13 01:00:24;;;;;;;3.07;1.30;;;;;;;;;;5032468;28;20184;-87
2023/04/13 01:02:53;;;;;;;2.93;1.60;;;;;;;;;;5028610;28;20200;-86
2023/04/13 01:05:25;;;;;;;4.73;1.73;;;;;;;;;;5018626;28;20209;-87
2023/04/13 01:08:07;;;;;;;3.60;1.50;;;;;;;;;;5023377;28;20196;-87
2023/04/13 01:11:10;;;;;;;2.90;1.50;;;;;;;;;;5045379;28;20184;-87
2023/04/13 01:13:36;;;;;;;3.03;1.60;;;;;;;;;;5018364;28;20263;-88
2023/04/13 01:16:05;;;;;;;3.83;1.80;;;;;;;;;;5030239;28;20185;-86
2023/04/13 01:18:33;;;;;;;3.17;1.47;;;;;;;;;;5030816;28;20188;-88
2023/04/13 01:21:16;;;;;;;3.00;1.80;;;;;;;;;;5029830;28;20181;-87
2023/04/13 01:23:49;;;;;;;4.37;1.80;;;;;;;;;;5032292;28;20280;-88
2023/04/13 01:26:21;;;;;;;4.00;1.70;;;;;;;;;;5049620;28;20259;-88
2023/04/13 01:28:50;;;;;;;3.67;1.63;;;;;;;;;;5035553;28;20185;-87
2023/04/13 01:31:23;;;;;;;2.83;1.57;;;;;;;;;;5018315;28;20202;-88
2023/04/13 01:33:52;;;;;;;2.73;1.43;;;;;;;;;;5032678;28;20279;-87
2023/04/13 01:36:22;;;;;;;4.27;1.60;;;;;;;;;;5031692;28;20287;-88
2023/04/13 01:38:49;;;;;;;8.67;2.20;;;;;;;;;;5036699;28;20216;-88
2023/04/13 01:41:15;;;;;;;3.87;1.70;;;;;;;;;;5053817;28;20210;-88
2023/04/13 01:43:44;;;;;;;4.17;1.70;;;;;;;;;;5029999;28;20172;-88
2023/04/13 01:46:12;;;;;;;2.77;1.60;;;;;;;;;;5039707;28;20188;-87
2023/04/13 01:48:48;;;;;;;3.80;1.60;;;;;;;;;;5041453;28;20197;-87
2023/04/13 01:51:24;;;;;;;3.07;1.60;;;;;;;;;;5040195;28;20184;-88
2023/04/13 01:53:55;;;;;;;4.50;2.00;;;;;;;;;;5039764;28;20192;-87
2023/04/13 01:56:25;;;;;;;4.10;1.70;;;;;;;;;;5033601;28;20188;-88
2023/04/13 01:58:56;;;;;;;4.23;1.70;;;;;;;;;;5023402;28;20216;-88
2023/04/13 02:01:24;;;;;;;5.70;1.70;;;;;;;;;;5036618;28;20188;-88
2023/04/13 02:03:52;;;;;;;3.27;1.50;;;;;;;;;;5012772;28;20208;-89
2023/04/13 02:06:19;;;;;;;4.90;1.90;;;;;;;;;;5037909;28;20188;-88
2023/04/13 02:08:49;;;;;;;3.63;1.80;;;;;;;;;;5057140;28;20261;-88
2023/04/13 02:11:16;;;;;;;3.43;1.70;;;;;;;;;;5038550;28;20191;-88
2023/04/13 02:13:42;;;;;;;5.83;1.60;;;;;;;;;;5018465;28;20216;-90
2023/04/13 02:16:08;;;;;;;6.10;1.70;;;;;;;;;;5036436;28;20212;-89
2023/04/13 02:18:50;;;;;;;6.30;2.00;;;;;;;;;;5024663;28;20272;-89
2023/04/13 02:21:18;;;;;;;5.57;1.80;;;;;;;;;;5034492;28;20183;-88
2023/04/13 02:23:47;;;;;;;4.10;1.63;;;;;;;;;;5052822;28;20191;-89
2023/04/13 02:26:36;;;;;;;4.57;2.00;;;;;;;;;;5029607;28;20279;-89
2023/04/13 02:29:04;;;;;;;4.87;1.77;;;;;;;;;;5036623;28;20224;-89
2023/04/13 02:31:35;;;;;;;5.57;1.90;;;;;;;;;;5016909;28;20235;-89
2023/04/13 02:34:09;;;;;;;5.83;2.00;;;;;;;;;;5035561;28;20183;-89
2023/04/13 02:36:38;;;;;;;6.63;1.93;;;;;;;;;;5034448;28;20203;-89
2023/04/13 02:39:04;;;;;;;6.23;1.90;;;;;;;;;;5040617;28;20184;-88
2023/04/13 02:41:36;;;;;;;4.57;1.90;;;;;;;;;;5039205;28;20180;-89
2023/04/13 02:44:10;;;;;;;6.40;2.00;;;;;;;;;;5040840;28;20184;-89
2023/04/13 02:46:36;;;;;;;4.27;1.53;;;;;;;;;;5020039;28;20204;-88
2023/04/13 02:49:07;;;;;;;3.10;1.53;;;;;;;;;;5035567;28;20183;-89
2023/04/13 02:51:34;;;;;;;3.50;1.60;;;;;;;;;;5017225;28;20180;-90
2023/04/13 02:54:18;;;;;;;3.37;1.40;;;;;;;;;;5035512;28;20175;-88
2023/04/13 02:56:44;;;;;;;5.77;1.60;;;;;;;;;;5031816;28;20188;-89
2023/04/13 02:59:15;;;;;;;6.20;2.07;;;;;;;;;;5026829;28;20176;-89
2023/04/13 03:01:41;;;;;;;4.40;1.70;;;;;;;;;;5048015;28;20184;-89
2023/04/13 03:04:08;;;;;;;4.97;1.90;;;;;;;;;;5035742;28;20302;-89
2023/04/13 03:06:36;;;;;;;2.20;1.50;;;;;;;;;;5008425;28;20185;-87
2023/04/13 03:09:29;;;;;;;3.43;1.70;;;;;;;;;;5031096;28;20194;-88
2023/04/13 03:11:55;;;;;;;3.90;1.87;;;;;;;;;;5035860;28;20208;-89
2023/04/13 03:14:21;;;;;;;3.90;1.63;;;;;;;;;;5037797;28;20183;-89
2023/04/13 03:16:50;;;;;;;3.93;1.93;;;;;;;;;;5057316;28;20172;-88
2023/04/13 03:19:16;;;;;;;3.47;2.07;;;;;;;;;;5031563;28;20189;-89
2023/04/13 03:21:43;;;;;;;5.60;1.90;;;;;;;;;;5034019;28;20180;-89
2023/04/13 03:24:14;;;;;;;4.40;1.60;;;;;;;;;;5034507;28;20183;-89
2023/04/13 03:26:43;;;;;;;3.90;2.00;;;;;;;;;;5015319;28;20224;-89
2023/04/13 03:29:09;;;;;;;5.13;1.97;;;;;;;;;;5027614;28;20187;-88
2023/04/13 03:31:35;;;;;;;5.10;1.73;;;;;;;;;;5032413;28;20242;-89
2023/04/13 03:34:05;;;;;;;5.23;1.80;;;;;;;;;;5018909;28;20203;-88
2023/04/13 03:36:31;;;;;;;3.73;1.97;;;;;;;;;;5032150;28;20271;-87
2023/04/13 03:38:58;;;;;;;5.63;1.93;;;;;;;;;;5035171;28;20184;-89
2023/04/13 03:41:24;;;;;;;4.17;1.80;;;;;;;;;;5032838;28;20188;-88
2023/04/13 03:43:58;;;;;;;7.20;2.03;;;;;;;;;;5034249;28;20176;-87
2023/04/13 03:46:27;;;;;;;5.30;2.30;;;;;;;;;;5040347;28;20180;-88
2023/04/13 03:48:56;;;;;;;5.70;2.33;;;;;;;;;;5034759;28;20184;-89
2023/04/13 03:51:23;;;;;;;5.03;2.47;;;;;;;;;;5015455;28;20180;-88
2023/04/13 03:53:49;;;;;;;4.00;2.37;;;;;;;;;;5043818;28;20209;-88
2023/04/13 03:56:15;;;;;;;4.70;2.40;;;;;;;;;;5034816;28;20187;-88
2023/04/13 03:58:41;;;;;;;3.60;2.30;;;;;;;;;;5032565;28;20187;-89
2023/04/13 04:01:09;;;;;;;3.60;2.13;;;;;;;;;;5034417;28;20176;-88
2023/04/13 04:03:46;;;;;;;7.47;2.23;;;;;;;;;;5033826;28;20199;-89
2023/04/13 04:06:12;;;;;;;6.10;2.20;;;;;;;;;;5038345;28;20180;-88
2023/04/13 04:08:38;;;;;;;4.60;2.40;;;;;;;;;;5052295;28;20192;-87
2023/04/13 04:11:07;;;;;;;6.53;2.53;;;;;;;;;;5017286;28;20180;-86
2023/04/13 04:13:33;;;;;;;6.10;2.33;;;;;;;;;;5034965;28;20203;-86
2023/04/13 04:16:02;;;;;;;4.10;2.07;;;;;;;;;;5034102;28;20218;-87
2023/04/13 04:18:30;;;;;;;4.60;2.20;;;;;;;;;;5035374;28;20180;-86
2023/04/13 04:20:56;;;;;;;4.43;2.47;;;;;;;;;;5033812;28;20175;-87
2023/04/13 04:23:26;;;;;;;6.20;2.13;;;;;;;;;;5022232;28;20189;-86
2023/04/13 04:25:53;;;;;;;5.67;2.10;;;;;;;;;;5031896;28;20239;-87
2023/04/13 04:28:19;;;;;;;4.70;2.17;;;;;;;;;;5030550;28;20200;-86
2023/04/13 04:30:52;;;;;;;3.57;2.47;;;;;;;;;;5031867;28;20183;-86
2023/04/13 04:33:21;;;;;;;4.03;2.10;;;;;;;;;;5018967;28;20205;-85
2023/04/13 04:35:51;;;;;;;6.30;2.20;;;;;;;;;;5023657;28;20196;-86
2023/04/13 04:38:17;;;;;;;4.57;2.10;;;;;;;;;;5028811;28;20182;-87
2023/04/13 04:40:44;;;;;;;3.80;2.37;;;;;;;;;;5026632;28;20260;-87
2023/04/13 04:43:13;;;;;;;5.17;2.47;;;;;;;;;;5015633;28;20180;-87
2023/04/13 04:45:44;;;;;;;4.90;2.30;;;;;;;;;;5033394;28;20209;-87
2023/04/13 04:48:13;;;;;;;4.73;2.40;;;;;;;;;;5038827;28;20192;-87
2023/04/13 04:50:43;;;;;;;6.07;2.73;;;;;;;;;;5033837;28;20181;-87
2023/04/13 04:53:29;;;;;;;6.07;3.00;;;;;;;;;;5019158;28;20285;-85
2023/04/13 04:55:58;;;;;;;9.63;3.20;;;;;;;;;;5024358;28;20188;-86
2023/04/13 04:58:24;;;;;;;4.77;3.13;;;;;;;;;;5047337;28;20204;-86
2023/04/13 05:00:51;;;;;;;7.90;3.67;;;;;;;;;;5017930;28;20176;-87
2023/04/13 05:03:20;;;;;;;9.60;4.07;;;;;;;;;;5016244;28;20189;-87
2023/04/13 05:05:46;;;;;;;9.33;4.10;;;;;;;;;;5037524;28;20177;-87
2023/04/13 05:08:12;;;;;;;6.87;4.10;;;;;;;;;;5032278;28;20185;-87
2023/04/13 05:10:45;;;;;;;8.53;4.73;;;;;;;;;;5034102;28;20176;-87
2023/04/13 05:13:17;;;;;;;9.03;4.67;;;;;;;;;;5032927;28;20204;-86
2023/04/13 05:15:43;;;;;;;10.50;5.00;;;;;;;;;;5029456;28;20242;-85
2023/04/13 05:18:11;;;;;;;9.00;4.60;;;;;;;;;;5029087;28;20189;-86
2023/04/13 05:20:40;;;;;;;9.50;4.77;;;;;;;;;;5033895;28;20214;-87
2023/04/13 05:23:11;;;;;;;9.70;5.50;;;;;;;;;;5035052;28;20185;-88
2023/04/13 05:25:45;;;;;;;10.33;6.10;;;;;;;;;;5033364;28;20247;-88
2023/04/13 05:28:28;;;;;;;9.87;6.20;;;;;;;;;;5034204;28;20180;-87
2023/04/13 05:31:11;;;;;;;10.23;6.77;;;;;;;;;;5018527;28;20185;-87
2023/04/13 05:33:37;;;;;;;9.30;6.47;;;;;;;;;;5031830;28;20211;-86
2023/04/13 05:36:07;;;;;;;12.27;7.57;;;;;;;;;;5034265;28;20208;-87
2023/04/13 05:38:36;;;;;;;11.63;6.97;;;;;;;;;;5032694;28;20185;-87
2023/04/13 05:44:15;;;;;;;12.50;7.07;;;;;;;;;;4984617;28;20181;-86
2023/04/13 05:46:41;;;;;;;14.07;7.47;;;;;;;;;;5014553;28;20247;-86
2023/04/13 05:49:17;;;;;;;11.17;7.30;;;;;;;;;;5033694;28;20173;-86
2023/04/13 05:51:50;;;;;;;13.47;7.17;;;;;;;;;;5031042;28;20184;-86
2023/04/13 05:54:16;;;;;;;15.53;7.80;;;;;;;;;;5033822;28;20180;-86
2023/04/13 05:57:20;;;;;;;;;;;;;;;;;;;;;
2023/04/13 05:59:52;;;;;;;10.23;6.70;;;;;;;;;;5027109;28;20185;-86
2023/04/13 06:05:07;;;;;;;10.40;6.53;;;;;;;;;;5024373;28;20208;-85
2023/04/13 06:07:43;;;;;;;12.00;6.30;;;;;;;;;;5033912;28;20181;-87
2023/04/13 06:10:19;;;;;;;11.90;5.90;;;;;;;;;;5030578;28;20204;-85
2023/04/13 06:12:47;;;;;;;10.57;5.97;;;;;;;;;;5016780;28;20207;-86
2023/04/13 06:15:19;;;;;;;12.13;6.10;;;;;;;;;;5033667;28;20180;-85
2023/04/13 06:17:45;;;;;;;9.23;5.37;;;;;;;;;;5032943;28;20184;-85
2023/04/13 06:20:17;;;;;;;11.53;5.70;;;;;;;;;;5030712;28;20181;-86
2023/04/13 06:22:43;;;;;;;8.63;6.13;;;;;;;;;;5025653;28;20189;-86
2023/04/13 06:25:12;;;;;;;12.23;5.93;;;;;;;;;;5029527;28;20232;-85
2023/04/13 06:27:39;;;;;;;10.63;6.27;;;;;;;;;;5013688;28;20189;-86
2023/04/13 06:30:08;;;;;;;13.03;6.87;;;;;;;;;;5013511;28;20204;-86
2023/04/13 06:32:58;;;;;;;;;;;;;;;;;;;;;
2023/04/13 06:35:29;;;;;;;11.57;7.20;;;;;;;;;;5019934;28;20177;-86
2023/04/13 06:38:34;;;;;;;10.43;7.07;;;;;;;;;;4996436;28;20220;-86
2023/04/13 06:41:02;;;;;;;9.83;7.13;;;;;;;;;;4937621;29;20294;-86
2023/04/13 06:43:28;;;;;;;12.80;7.40;;;;;;;;;;4992358;28;20295;-85
2023/04/13 06:46:18;;;;;;;10.27;7.27;;;;;;;;;;5033261;28;20177;-85
2023/04/13 06:49:09;;;;;;;7.67;5.10;;;;;;;;;;4990147;28;20220;-86
2023/04/13 06:51:36;;;;;;;6.10;4.83;;;;;;;;;;5009181;28;20220;-85
2023/04/13 06:54:05;;;;;;;8.43;5.30;;;;;;;;;;4997227;28;20181;-86
2023/04/13 06:56:31;;;;;;;7.97;5.50;;;;;;;;;;5012614;28;20177;-86
2023/04/13 06:59:01;;;;;;;8.10;5.40;;;;;;;;;;5012924;28;20209;-86
2023/04/13 07:01:30;;;;;;;10.10;5.87;;;;;;;;;;5028281;28;20177;-86
2023/04/13 07:04:09;;;;;;;;;;;;;;;;;;;;;
2023/04/13 07:07:01;;;;;;;;;;;;;;;;;;;;;
2023/04/13 07:09:28;;;;;;;11.13;6.67;;;;;;;;;;5014286;28;20181;-87
2023/04/13 07:11:54;;;;;;;8.77;6.20;;;;;;;;;;4996903;28;20205;-88
2023/04/13 07:14:20;;;;;;;8.77;6.30;;;;;;;;;;4996430;28;20189;-87
2023/04/13 07:16:49;;;;;;;7.77;5.33;;;;;;;;;;5013017;28;20181;-88
2023/04/13 07:19:24;;;;;;;5.87;4.80;;;;;;;;;;5008094;28;20181;-87
2023/04/13 07:21:55;;;;;;;7.77;4.93;;;;;;;;;;5012995;28;20181;-85
2023/04/13 07:24:48;;;;;;;8.43;4.87;;;;;;;;;;4992415;28;20225;-86
2023/04/13 07:33:32;;;;;;;7.50;4.93;;;;;;;;;;4992933;28;20224;-86
2023/04/13 07:39:14;;;;;;;;;;;;;;;;;;;;;
2023/04/13 07:48:29;;;;;;;7.67;4.70;;;;;;;;;;4973316;28;20194;-85
2023/04/13 07:54:16;;;;;;;9.47;4.90;;;;;;;;;;4967546;28;20319;-87
2023/04/13 07:56:47;;;;;;;9.93;5.43;;;;;;;;;;4970289;28;20308;-88
2023/04/13 07:59:15;;;;;;;9.80;5.10;;;;;;;;;;4975993;28;20180;-87
2023/04/13 08:01:44;;;;;;;8.37;5.17;;;;;;;;;;4991151;28;20186;-86
2023/04/13 08:04:20;;;;;;;8.77;5.07;;;;;;;;;;4956707;28;20226;-87
2023/04/13 08:06:52;;;;;;;9.50;4.57;;;;;;;;;;4956295;28;20186;-86
2023/04/13 08:09:26;;;;;;;8.37;4.93;;;;;;;;;;4958373;28;20175;-87
2023/04/13 08:11:52;;;;;;;9.30;4.20;;;;;;;;;;4983805;28;20193;-87
2023/04/13 08:14:18;;;;;;;8.37;4.33;;;;;;;;;;5018317;28;20173;-88
2023/04/13 08:16:52;;;;;;;7.83;4.60;;;;;;;;;;5036458;28;20172;-87
2023/04/13 08:19:18;;;;;;;11.40;4.60;;;;;;;;;;5036024;28;20181;-86
2023/04/13 08:21:44;;;;;;;10.67;4.93;;;;;;;;;;5019814;28;20234;-87
2023/04/13 08:24:13;;;;;;;10.10;4.60;;;;;;;;;;5035643;28;20188;-87
2023/04/13 08:26:39;;;;;;;11.80;4.90;;;;;;;;;;5035049;28;20449;-87
2023/04/13 08:29:13;;;;;;;8.90;4.50;;;;;;;;;;5036179;28;20176;-86
2023/04/13 08:31:42;;;;;;;12.47;4.80;;;;;;;;;;5035396;28;20203;-86
2023/04/13 08:34:14;;;;;;;10.00;4.70;;;;;;;;;;5020415;28;20177;-86
2023/04/13 08:36:44;;;;;;;13.73;4.70;;;;;;;;;;5035809;28;20188;-86
2023/04/13 08:39:11;;;;;;;12.20;4.83;;;;;;;;;;5020176;28;20197;-86
2023/04/13 08:41:40;;;;;;;11.00;4.60;;;;;;;;;;5033339;28;20192;-86
2023/04/13 08:44:07;;;;;;;14.17;4.80;;;;;;;;;;5000825;28;20173;-87
2023/04/13 08:46:33;;;;;;;15.67;4.70;;;;;;;;;;5029903;28;20185;-86
2023/04/13 08:49:02;;;;;;;14.77;4.60;;;;;;;;;;5017970;28;20191;-86
2023/04/13 08:51:33;;;;;;;14.83;4.63;;;;;;;;;;5035823;28;20176;-86
2023/04/13 08:54:02;;;;;;;16.87;4.07;;;;;;;;;;5032095;28;20217;-86
2023/04/13 08:56:28;;;;;;;13.17;4.43;;;;;;;;;;5015607;28;20174;-87
2023/04/13 08:59:00;;;;;;;11.37;3.50;;;;;;;;;;5015870;28;20205;-85
2023/04/13 09:01:27;;;;;;;16.37;4.37;;;;;;;;;;5015838;28;20181;-86
2023/04/13 09:03:53;;;;;;;13.47;3.70;;;;;;;;;;5015589;28;20201;-85
2023/04/13 09:06:24;;;;;;;11.70;3.60;;;;;;;;;;5015901;28;20273;-85
2023/04/13 09:08:52;;;;;;;15.20;4.00;;;;;;;;;;5015813;28;20205;-87
2023/04/13 09:11:21;;;;;;;9.73;3.23;;;;;;;;;;5015719;28;20220;-86
2023/04/13 09:13:50;;;;;;;11.70;3.00;;;;;;;;;;5015573;28;20236;-86
2023/04/13 09:16:17;;;;;;;8.57;3.50;;;;;;;;;;5015324;28;20185;-86
2023/04/13 09:18:54;;;;;;;11.90;3.77;;;;;;;;;;5015664;28;20184;-86
2023/04/13 09:21:22;;;;;;;14.83;3.70;;;;;;;;;;5026533;28;20275;-86
2023/04/13 09:24:02;;;;;;;8.97;2.80;;;;;;;;;;5031656;28;20182;-87
2023/04/13 09:26:57;;;;;;;11.90;3.50;;;;;;;;;;5032048;28;20236;-86
2023/04/13 09:29:26;;;;;;;13.53;3.27;;;;;;;;;;5024585;28;20184;-87
2023/04/13 09:31:52;;;;;;;12.50;3.10;;;;;;;;;;5018746;28;20229;-86
2023/04/13 09:34:31;;;;;;;13.77;3.43;;;;;;;;;;5014813;28;20213;-86
2023/04/13 09:36:57;;;;;;;9.63;3.10;;;;;;;;;;5014907;28;20169;-86
2023/04/13 09:39:26;;;;;;;11.57;3.07;;;;;;;;;;5014508;28;20184;-86
2023/04/13 09:41:53;;;;;;;12.77;3.37;;;;;;;;;;5014931;28;20185;-86
2023/04/13 09:44:23;;;;;;;12.13;3.10;;;;;;;;;;5015002;28;20251;-86
2023/04/13 09:47:01;;;;;;;12.63;3.10;;;;;;;;;;5020143;28;20242;-87
2023/04/13 09:49:42;;;;;;;12.40;3.13;;;;;;;;;;5031300;28;20180;-87
2023/04/13 09:52:24;;;;;;;13.33;3.17;;;;;;;;;;5027852;28;20221;-86
2023/04/13 09:54:51;;;;;;;12.30;2.87;;;;;;;;;;4998425;28;20181;-87
2023/04/13 09:57:27;;;;;;;14.00;3.07;;;;;;;;;;5014667;28;20181;-87
2023/04/13 09:59:59;;;;;;;12.40;2.80;;;;;;;;;;5014530;28;20235;-87
2023/04/13 10:02:25;;;;;;;12.10;3.17;;;;;;;;;;5015078;28;20185;-87
2023/04/13 10:04:55;;;;;;;10.93;3.03;;;;;;;;;;5014317;28;20216;-86
2023/04/13 10:07:25;;;;;;;13.07;3.20;;;;;;;;;;4998274;28;20189;-86
2023/04/13 10:09:55;;;;;;;11.87;3.07;;;;;;;;;;5015113;28;20190;-87
2023/04/13 10:12:26;;;;;;;11.48;3.28;;;;;;;;;;5014435;28;20430;-86
2023/04/13 10:15:01;;;;;;;12.77;3.40;;;;;;;;;;5022274;28;20272;-86
2023/04/13 10:17:35;;;;;;;12.63;3.40;;;;;;;;;;5030081;28;20180;-87
2023/04/13 10:20:09;;;;;;;11.07;3.33;;;;;;;;;;5013797;28;20211;-86
2023/04/13 10:22:46;;;;;;;13.97;3.40;;;;;;;;;;5012787;28;20454;-86
2023/04/13 10:25:15;;;;;;;12.90;3.20;;;;;;;;;;5014028;28;20532;-87
2023/04/13 10:27:55;;;;;;;11.87;3.47;;;;;;;;;;5016381;28;20446;-87
2023/04/13 10:30:23;;;;;;;15.33;3.07;;;;;;;;;;5032674;28;20188;-87
2023/04/13 10:33:00;;;;;;;11.13;2.73;;;;;;;;;;5032399;28;20226;-87
2023/04/13 10:35:26;;;;;;;12.30;2.73;;;;;;;;;;5029493;28;20188;-87
2023/04/13 10:37:59;;;;;;;12.50;3.00;;;;;;;;;;5013697;28;20181;-87
2023/04/13 10:40:25;;;;;;;10.70;3.20;;;;;;;;;;5013720;28;20177;-87
2023/04/13 10:42:52;;;;;;;10.17;3.00;;;;;;;;;;5000164;28;20192;-88
2023/04/13 10:45:22;;;;;;;12.43;3.00;;;;;;;;;;5033215;28;20276;-87
2023/04/13 10:47:52;;;;;;;10.97;3.07;;;;;;;;;;5032486;28;20242;-87
2023/04/13 10:50:21;;;;;;;10.03;3.07;;;;;;;;;;5033276;28;20199;-88
2023/04/13 10:53:04;;;;;;;11.70;3.37;;;;;;;;;;5028889;28;20236;-86
2023/04/13 10:55:32;;;;;;;12.17;3.20;;;;;;;;;;5013260;28;20228;-85
2023/04/13 10:57:59;;;;;;;13.63;3.10;;;;;;;;;;5029704;28;20185;-86
2023/04/13 11:00:27;;;;;;;14.73;3.53;;;;;;;;;;5013824;28;20181;-85
2023/04/13 11:02:58;;;;;;;16.27;3.40;;;;;;;;;;5029872;28;20177;-86
2023/04/13 11:05:28;;;;;;;10.43;2.80;;;;;;;;;;5037879;28;20262;-87
2023/04/13 11:07:57;;;;;;;11.17;2.87;;;;;;;;;;5032956;28;20210;-86
2023/04/13 11:10:25;;;;;;;11.07;3.07;;;;;;;;;;5028988;28;20212;-86
2023/04/13 11:12:52;;;;;;;11.83;2.87;;;;;;;;;;4996756;28;20233;-86
2023/04/13 11:15:21;;;;;;;8.23;2.50;;;;;;;;;;5028474;28;20249;-88
2023/04/13 11:17:57;;;;;;;9.23;2.40;;;;;;;;;;5029002;28;20211;-87
2023/04/13 11:20:31;;;;;;;9.70;2.60;;;;;;;;;;4997282;28;20184;-86
2023/04/13 11:23:18;;;;;;;11.40;3.00;;;;;;;;;;5012327;28;20192;-87
2023/04/13 11:28:52;;;;;;;11.00;2.87;;;;;;;;;;5014456;28;20215;-87
2023/04/13 11:31:36;;;;;;;8.80;2.23;;;;;;;;;;4999879;28;20194;-87
2023/04/13 11:34:04;;;;;;;6.70;2.07;;;;;;;;;;5012807;28;20211;-86
2023/04/13 11:36:31;;;;;;;9.03;2.20;;;;;;;;;;5012627;28;20177;-87
2023/04/13 11:39:05;;;;;;;8.83;2.60;;;;;;;;;;5012872;28;20173;-87
2023/04/13 11:41:38;;;;;;;6.47;2.33;;;;;;;;;;5011933;28;20204;-88
2023/04/13 11:44:10;;;;;;;7.30;2.43;;;;;;;;;;5013100;28;20185;-87
2023/04/13 11:46:36;;;;;;;10.30;2.40;;;;;;;;;;4996992;28;20193;-88
2023/04/13 11:49:05;;;;;;;9.63;2.73;;;;;;;;;;5004938;28;20279;-88
2023/04/13 11:51:32;;;;;;;10.30;2.90;;;;;;;;;;5031689;28;20425;-87
2023/04/13 11:54:04;;;;;;;11.63;3.35;;;;;;;;;;5030528;28;20436;-87
2023/04/13 11:56:39;;;;;;;10.30;2.90;;;;;;;;;;5031940;28;20199;-87
2023/04/13 11:59:07;;;;;;;8.10;2.13;;;;;;;;;;5032494;28;20179;-87
2023/04/13 12:01:49;;;;;;;;;;;;;;;;;;;;;
2023/04/13 12:04:15;;;;;;;11.38;3.10;;;;;;;;;;5018772;28;20421;-87
2023/04/13 12:06:51;;;;;;;7.37;2.47;;;;;;;;;;5038214;28;20279;-87
2023/04/13 12:09:21;;;;;;;9.50;2.80;;;;;;;;;;5012200;28;20411;-87
2023/04/13 12:11:53;;;;;;;10.97;2.80;;;;;;;;;;5012223;28;20224;-88
2023/04/13 12:14:21;;;;;;;10.63;2.85;;;;;;;;;;5012238;28;20439;-88
2023/04/13 12:16:50;;;;;;;12.80;3.10;;;;;;;;;;5011729;28;20407;-86
2023/04/13 12:19:27;;;;;;;9.45;2.80;;;;;;;;;;5029700;28;20427;-86
2023/04/13 12:22:01;;;;;;;9.73;3.25;;;;;;;;;;5023215;28;20430;-86
2023/04/13 12:24:34;;;;;;;10.33;2.70;;;;;;;;;;5023810;28;20481;-87
2023/04/13 12:27:02;;;;;;;8.88;2.97;;;;;;;;;;5031215;28;20517;-86
2023/04/13 12:29:31;;;;;;;9.07;2.83;;;;;;;;;;5030972;28;20452;-86
2023/04/13 12:32:20;;;;;;;8.80;2.90;;;;;;;;;;5030049;28;20429;-87
2023/04/13 12:34:47;;;;;;;9.90;2.85;;;;;;;;;;5025213;28;20420;-87
2023/04/13 12:37:13;;;;;;;9.60;2.93;;;;;;;;;;5034149;28;20439;-88
2023/04/13 12:39:45;;;;;;;13.33;2.47;;;;;;;;;;5023575;28;20482;-89
2023/04/13 12:42:11;;;;;;;8.18;2.60;;;;;;;;;;4999148;28;20435;-90
2023/04/13 12:44:42;;;;;;;6.93;2.43;;;;;;;;;;5012098;28;20235;-88
2023/04/13 12:47:08;;;;;;;9.27;2.43;;;;;;;;;;5017810;28;20189;-89
2023/04/13 12:49:35;;;;;;;12.02;2.80;;;;;;;;;;5026564;28;20491;-88
2023/04/13 12:52:03;;;;;;;10.10;2.80;;;;;;;;;;4995257;28;20426;-88
2023/04/13 12:54:29;;;;;;;8.70;2.60;;;;;;;;;;5020951;28;20431;-86
2023/04/13 12:56:56;;;;;;;13.35;3.20;;;;;;;;;;5005304;28;20425;-87
2023/04/13 12:59:29;;;;;;;8.80;2.80;;;;;;;;;;5030731;28;20426;-87
2023/04/13 13:01:55;;;;;;;7.60;2.70;;;;;;;;;;5015998;28;20435;-87
2023/04/13 13:04:24;;;;;;;10.33;2.50;;;;;;;;;;5015916;28;20223;-86
2023/04/13 13:06:51;;;;;;;9.13;2.80;;;;;;;;;;5032347;28;20182;-86
2023/04/13 13:09:17;;;;;;;9.07;2.20;;;;;;;;;;5034091;28;20189;-86
2023/04/13 13:11:45;;;;;;;8.50;2.40;;;;;;;;;;5035919;28;20177;-88
2023/04/13 13:14:22;;;;;;;9.10;2.73;;;;;;;;;;5043155;28;20270;-87
2023/04/13 13:16:49;;;;;;;11.38;2.95;;;;;;;;;;5033782;28;20428;-87
2023/04/13 13:19:15;;;;;;;10.20;2.50;;;;;;;;;;5031805;28;20200;-87
2023/04/13 13:21:43;;;;;;;11.00;2.85;;;;;;;;;;5014677;28;20442;-87
2023/04/13 13:24:10;;;;;;;10.90;2.83;;;;;;;;;;5014585;28;20408;-87
2023/04/13 13:26:36;;;;;;;8.45;2.92;;;;;;;;;;5030419;28;20447;-88
2023/04/13 13:29:06;;;;;;;9.32;2.65;;;;;;;;;;5035342;28;20434;-89
2023/04/13 13:31:40;;;;;;;8.30;2.70;;;;;;;;;;5033687;28;20501;-90
2023/04/13 13:34:06;;;;;;;9.50;2.30;;;;;;;;;;5034607;28;20208;-88
2023/04/13 13:36:32;;;;;;;9.05;2.80;;;;;;;;;;5028953;28;20411;-88
2023/04/13 13:39:04;;;;;;;9.07;2.92;;;;;;;;;;5023724;28;20417;-88
2023/04/13 13:41:30;;;;;;;9.90;3.10;;;;;;;;;;5024139;28;20173;-88
2023/04/13 13:44:02;;;;;;;6.80;2.30;;;;;;;;;;5034214;28;20184;-91
2023/04/13 13:46:30;;;;;;;9.07;2.50;;;;;;;;;;5042785;28;20234;-88
2023/04/13 13:48:56;;;;;;;7.13;1.90;;;;;;;;;;5044765;28;20320;-87
2023/04/13 13:51:27;;;;;;;9.45;2.58;;;;;;;;;;5014861;28;20441;-85
2023/04/13 13:53:56;;;;;;;8.68;2.53;;;;;;;;;;5020612;28;20445;-87
2023/04/13 13:56:24;;;;;;;9.27;2.70;;;;;;;;;;5032994;28;20862;-86
2023/04/13 13:58:51;;;;;;;5.73;2.13;;;;;;;;;;5014688;28;20211;-86
2023/04/13 14:01:17;;;;;;;8.10;2.47;;;;;;;;;;5032740;28;20402;-86
2023/04/13 14:03:45;;;;;;;7.47;2.23;;;;;;;;;;5017177;28;20196;-87
2023/04/13 14:06:11;;;;;;;11.63;2.40;;;;;;;;;;5030982;28;20185;-87
2023/04/13 14:08:38;;;;;;;10.37;2.30;;;;;;;;;;5027484;28;20215;-87
2023/04/13 14:11:04;;;;;;;9.57;2.43;;;;;;;;;;5034272;28;20212;-85
2023/04/13 14:13:30;;;;;;;7.23;2.20;;;;;;;;;;5042668;28;20268;-87
2023/04/13 14:15:59;;;;;;;8.45;2.60;;;;;;;;;;5021078;28;20433;-87
2023/04/13 14:18:25;;;;;;;7.88;2.33;;;;;;;;;;5032023;28;20404;-86
2023/04/13 14:20:56;;;;;;;9.35;2.42;;;;;;;;;;5050635;28;20400;-85
2023/04/13 14:23:22;;;;;;;7.32;2.58;;;;;;;;;;5032863;28;20426;-86
2023/04/13 14:25:49;;;;;;;8.45;2.30;;;;;;;;;;5032175;28;20464;-87
2023/04/13 14:28:16;;;;;;;3.80;2.00;;;;;;;;;;5033951;28;20185;-87
2023/04/13 14:30:43;;;;;;;8.65;2.78;;;;;;;;;;5013334;28;20418;-86
2023/04/13 14:33:12;;;;;;;9.15;2.28;;;;;;;;;;5034524;28;20518;-87
2023/04/13 14:35:38;;;;;;;7.30;2.40;;;;;;;;;;5016168;28;20490;-86
2023/04/13 14:38:04;;;;;;;7.43;2.33;;;;;;;;;;5031837;28;20513;-86
2023/04/13 14:40:30;;;;;;;6.72;2.20;;;;;;;;;;5036376;28;20463;-88
2023/04/13 14:42:59;;;;;;;8.07;2.42;;;;;;;;;;5032830;28;20421;-87
2023/04/13 14:45:25;;;;;;;9.15;2.45;;;;;;;;;;5032908;28;20417;-87
2023/04/13 14:47:52;;;;;;;9.02;2.30;;;;;;;;;;5033137;28;20420;-85
2023/04/13 14:50:21;;;;;;;7.57;2.10;;;;;;;;;;5033654;28;20504;-86
2023/04/13 14:52:49;;;;;;;5.37;1.70;;;;;;;;;;5014957;28;20471;-86
2023/04/13 14:55:21;;;;;;;5.35;1.80;;;;;;;;;;5032916;28;20500;-87
2023/04/13 14:57:47;;;;;;;6.97;2.10;;;;;;;;;;5015349;28;20417;-86
2023/04/13 15:00:25;;;;;;;7.07;2.38;;;;;;;;;;5032350;28;20417;-87
2023/04/13 15:02:51;;;;;;;7.15;2.22;;;;;;;;;;5035848;28;20429;-85
2023/04/13 15:05:17;;;;;;;6.70;2.20;;;;;;;;;;5019584;28;20540;-86
2023/04/13 15:07:44;;;;;;;5.88;2.20;;;;;;;;;;5012590;28;20418;-84
2023/04/13 15:10:11;;;;;;;4.93;2.20;;;;;;;;;;5026485;28;20422;-86
2023/04/13 15:12:40;;;;;;;6.87;2.10;;;;;;;;;;5039756;28;20421;-86
2023/04/13 15:15:09;;;;;;;8.45;2.20;;;;;;;;;;5032280;28;20448;-85
2023/04/13 15:17:38;;;;;;;6.60;2.08;;;;;;;;;;5015315;28;20428;-86
2023/04/13 15:20:06;;;;;;;7.97;2.37;;;;;;;;;;5031862;28;20406;-86
2023/04/13 15:22:37;;;;;;;8.33;2.23;;;;;;;;;;5030065;28;20444;-86
2023/04/13 15:25:04;;;;;;;6.68;2.28;;;;;;;;;;5017997;28;20412;-84
2023/04/13 15:27:30;;;;;;;5.97;2.13;;;;;;;;;;5042228;28;20438;-85
2023/04/13 15:30:01;;;;;;;7.50;2.22;;;;;;;;;;5044483;28;20422;-84
2023/04/13 15:32:27;;;;;;;7.82;2.20;;;;;;;;;;5032873;28;20443;-83